Terminal Aerodrome Forecast
Issued by NWS La Crosse, WI

Home | Current Version | Previous Version | Text Only | Print | Product List | Glossary On
Versions: 1 2 3 4 5 6 7 8 9 10 11 12 13 14 15 16 17 18 19 20 21 22 23 24
000
FTUS43 KARX 031139
TAFRST
TAF
KRST 031139Z 0312/0412 16010KT P6SM BKN050
     FM031300 18012G18KT P6SM VCTS BKN030CB
     FM031700 18014G20KT P6SM BKN035
     FM032200 18012KT P6SM VCTS BKN035CB
     FM040300 18006KT 5SM BR BKN035=

USA.gov is the U.S. government's official web portal to all federal, state and local government web resources and services.